Observations for Trim Market St
| Time | AQI | Temp °C | Hum % | Pres Pa | CO μg/m³ | H₂S μg/m³ | NO μg/m³ | NO₂ μg/m³ | O₃ μg/m³ | SO₂ μg/m³ | PM1 μg/m³ | PM2.5 μg/m³ | PM10 μg/m³ |
|---|---|---|---|---|---|---|---|---|---|---|---|---|---|
| Tuesday 18 August 2026 | |||||||||||||
| 12:06 | 2 | 23.8 | 53 | 56,634 | 0 | 0 | 3.12 | 10.79 | 62.73 | 0 | 0 | 1.81 | 1.99 |
| 12:04 | 2 | 23.8 | 53 | 56,977 | 0 | 0 | 3.07 | 11.76 | 60.85 | 0 | 0 | 1.82 | 2 |
| 11:58 | 2 | 24 | 53 | 57,482 | 0 | 0 | 3.31 | 11.51 | 60.14 | 0 | 0 | 1.82 | 2.42 |
| 11:52 | 2 | 23.9 | 53 | 57,232 | 0 | 0 | 2.36 | 12.36 | 69.7 | 0 | 0 | 2.32 | 2.43 |
| 11:51 | 2 | 23.8 | 53 | 57,289 | 0 | 0 | 2.43 | 11.87 | 65.68 | 0 | 0 | 1.82 | 2 |
| 11:50 | 2 | 23.8 | 53 | 57,372 | 0 | 0 | 2.56 | 10.72 | 64.4 | 0 | 0 | 1.82 | 2 |
| 11:45 | 2 | 23.6 | 53 | 57,254 | 0 | 0 | 2.36 | 9.17 | 63.06 | 0 | 0 | 1.81 | 1.99 |
| 11:44 | 2 | 23.6 | 53 | 57,223 | 0 | 0 | 2.59 | 7.43 | 55.33 | 0 | 0 | 1.8 | 1.98 |
| 11:43 | 2 | 23.6 | 53 | 56,912 | 0 | 0 | 3.67 | 9.45 | 58.15 | 0 | 0 | 1.8 | 1.98 |
| 11:42 | 2 | 23.6 | 54 | 56,666 | 0 | 0 | 3.74 | 7.84 | 53.55 | 0 | 0 | 1.79 | 1.97 |
| 11:41 | 2 | 23.6 | 54 | 56,215 | 0 | 0 | 3.78 | 11.72 | 58.46 | 0 | 0 | 1.79 | 1.97 |
| 11:40 | 2 | 23.6 | 54 | 55,924 | 0 | 0 | 3.79 | 12.65 | 49.9 | 0 | 0 | 1.79 | 1.96 |
| 11:39 | 2 | 23.6 | 54 | 55,862 | 0 | 0 | 3.74 | 24.94 | 37.34 | 0 | 0 | 1.79 | 1.96 |
| 11:38 | 2 | 23.6 | 54 | 55,664 | 0 | 0 | 2.65 | 10.63 | 61.17 | 0 | 0 | 1.78 | 1.96 |
| 11:37 | 2 | 23.6 | 54 | 55,705 | 0 | 0 | 2.47 | 9.36 | 57.13 | 0 | 0 | 1.78 | 2.47 |
| 11:36 | 2 | 23.6 | 54 | 55,583 | 0 | 0 | 2.46 | 12.13 | 59.11 | 0 | 0.71 | 2.28 | 2.47 |
| 11:35 | 2 | 23.6 | 54 | 55,612 | 0.06 | 0 | 2.36 | 8.46 | 51.5 | 0 | 0 | 1.77 | 1.95 |
| 11:34 | 2 | 23.6 | 54 | 55,657 | 0 | 0 | 2.24 | 10.15 | 59.78 | 0 | 0 | 1.77 | 1.95 |
| 11:33 | 2 | 23.6 | 54 | 55,687 | 0 | 0 | 2.73 | 12.29 | 59.65 | 0 | 0 | 1.77 | 1.95 |
| 11:32 | 2 | 23.6 | 54 | 55,624 | 0 | 0 | 2.81 | 12.64 | 64.44 | 0 | 0 | 1.77 | 1.95 |